createdAt,value
2018-02-06T07:15:04.732Z,19.83
2018-02-06T07:17:38.375Z,18.08
2018-02-06T07:20:08.412Z,17.02
2018-02-06T07:22:40.971Z,16.33
2018-02-06T07:25:08.996Z,16.17
2018-02-06T07:27:37.019Z,14.25
2018-02-06T07:30:19.279Z,18.23
2018-02-06T07:32:47.293Z,16.08
2018-02-06T07:35:15.303Z,17.90
2018-02-06T07:37:43.315Z,18.23
2018-02-06T07:40:11.327Z,17.10
2018-02-06T07:42:43.067Z,17.35
2018-02-06T07:45:11.098Z,16.40
2018-02-06T07:47:41.039Z,17.35
2018-02-06T07:50:09.063Z,18.15
2018-02-06T07:52:37.079Z,15.85
2018-02-06T07:55:05.123Z,16.12
2018-02-06T07:57:37.632Z,16.80
2018-02-06T08:00:06.563Z,17.12
2018-02-06T08:02:35.492Z,14.18
2018-02-06T08:05:03.524Z,16.98
2018-02-06T08:07:31.535Z,15.90
2018-02-06T08:10:01.552Z,16.25
2018-02-06T08:12:29.579Z,17.73
2018-02-06T08:14:57.596Z,18.10
2018-02-06T08:17:29.251Z,14.60
2018-02-06T08:19:57.263Z,15.98
2018-02-06T08:22:25.295Z,16.98
2018-02-06T08:24:53.311Z,16.35
2018-02-06T08:27:27.263Z,15.73
2018-02-06T08:29:55.283Z,18.42
2018-02-06T08:32:23.299Z,15.75
2018-02-06T08:34:58.301Z,15.70
2018-02-06T08:37:26.315Z,15.45
2018-02-06T08:39:55.223Z,17.20
2018-02-06T08:42:26.127Z,15.68
2018-02-06T08:44:57.963Z,14.95
2018-02-06T08:47:26.739Z,17.50
2018-02-06T08:49:55.659Z,15.75
2018-02-06T08:52:23.671Z,16.20
2018-02-06T08:54:53.439Z,17.02
2018-02-06T08:57:21.468Z,16.73
2018-02-06T08:59:51.235Z,15.75
2018-02-06T09:02:19.275Z,16.85
2018-02-06T09:04:47.279Z,16.00
2018-02-06T09:07:18.831Z,13.10
2018-02-06T09:09:48.743Z,14.80
2018-02-06T09:12:16.760Z,15.98
2018-02-06T09:14:45.659Z,16.65
2018-02-06T09:17:13.671Z,16.95
2018-02-06T09:19:45.399Z,14.93
2018-02-06T09:22:14.315Z,14.75
2018-02-06T09:24:44.328Z,15.32
2018-02-06T09:27:13.238Z,14.18
2018-02-06T09:29:47.943Z,13.95
2018-02-06T09:32:15.967Z,15.50
2018-02-06T09:34:43.967Z,14.87
2018-02-06T09:37:12.001Z,15.30
2018-02-06T09:39:40.011Z,15.20
2018-02-06T09:42:08.031Z,13.68
2018-02-06T09:44:38.003Z,14.55
2018-02-06T09:47:06.923Z,11.40
2018-02-06T09:49:37.615Z,14.55
2018-02-06T09:52:09.183Z,14.43
2018-02-06T09:54:38.172Z,14.40
2018-02-06T09:57:06.197Z,13.82
2018-02-06T09:59:34.222Z,14.68
2018-02-06T10:02:02.242Z,16.27
2018-02-06T10:04:31.167Z,16.33
2018-02-06T10:07:00.079Z,14.35
2018-02-06T10:09:28.091Z,15.95
2018-02-06T10:11:56.103Z,15.32
2018-02-06T10:14:26.011Z,15.63
2018-02-06T10:16:54.031Z,13.75
2018-02-06T10:19:22.026Z,14.85
2018-02-06T10:21:50.042Z,16.02
2018-02-06T10:24:18.047Z,14.77
2018-02-06T10:26:46.062Z,17.00
2018-02-06T10:29:15.031Z,12.05
2018-02-06T10:31:43.036Z,15.73
2018-02-06T10:34:11.034Z,17.55
2018-02-06T10:36:39.038Z,15.38
2018-02-06T10:39:07.046Z,16.30
2018-02-06T10:41:40.994Z,13.25
2018-02-06T10:44:09.017Z,15.15
2018-02-06T10:46:42.634Z,14.73
2018-02-06T10:49:13.334Z,15.27
2018-02-06T10:51:45.167Z,14.60
2018-02-06T10:54:13.134Z,15.50
2018-02-06T10:56:41.146Z,15.35
2018-02-06T10:59:10.122Z,15.45
2018-02-06T11:01:38.181Z,16.17
2018-02-06T11:04:06.194Z,13.95
2018-02-06T11:06:34.986Z,14.60
2018-02-06T11:09:04.750Z,15.27
2018-02-06T11:11:32.750Z,17.00
2018-02-06T11:14:02.746Z,15.48
2018-02-06T11:16:30.770Z,15.70
2018-02-06T11:18:58.806Z,15.07
2018-02-06T11:21:30.322Z,15.68
2018-02-06T11:23:58.354Z,15.48
2018-02-06T11:26:26.362Z,13.82
2018-02-06T11:28:55.278Z,16.98
2018-02-06T11:31:24.246Z,15.50
2018-02-06T11:33:53.250Z,16.50
2018-02-06T11:36:22.245Z,16.42
2018-02-06T11:38:50.258Z,15.05
2018-02-06T11:41:18.298Z,14.68
2018-02-06T11:43:46.298Z,15.88
2018-02-06T11:46:18.702Z,15.55
2018-02-06T11:48:47.610Z,14.77
2018-02-06T11:51:15.620Z,16.55
2018-02-06T11:53:45.379Z,15.32
2018-02-06T11:56:13.378Z,15.15
2018-02-06T11:58:47.331Z,14.10
2018-02-06T12:01:16.262Z,14.68
2018-02-06T12:03:44.254Z,13.55
2018-02-06T12:06:13.042Z,12.48
2018-02-06T12:08:42.002Z,13.55
2018-02-06T12:11:10.010Z,14.68
2018-02-06T12:13:38.777Z,12.73
2018-02-06T12:16:07.745Z,14.80
2018-02-06T12:18:41.545Z,12.15
2018-02-06T12:21:12.595Z,14.43
2018-02-06T12:23:45.233Z,14.13
2018-02-06T12:26:16.809Z,12.85
2018-02-06T12:28:53.065Z,15.68
2018-02-06T12:31:24.018Z,13.80
2018-02-06T12:33:55.989Z,15.88
2018-02-06T12:36:24.993Z,12.60
2018-02-06T12:38:56.540Z,13.57
2018-02-06T12:41:25.525Z,13.93
2018-02-06T12:43:53.533Z,12.32
2018-02-06T12:46:22.465Z,12.65
2018-02-06T12:48:54.049Z,13.40
2018-02-06T12:51:22.055Z,13.38
2018-02-06T12:53:52.738Z,14.13
2018-02-06T12:56:20.769Z,12.48
2018-02-06T12:58:48.770Z,13.00
2018-02-06T13:01:16.791Z,11.73
2018-02-06T13:03:45.565Z,12.50
2018-02-06T13:06:14.465Z,11.60
2018-02-06T13:08:46.892Z,13.50
2018-02-06T13:11:14.910Z,14.93
2018-02-06T13:13:43.680Z,13.93
2018-02-06T13:16:16.249Z,13.52
2018-02-06T13:18:45.213Z,13.95
2018-02-06T13:21:13.283Z,13.02
2018-02-06T13:23:42.025Z,14.13
2018-02-06T13:26:11.789Z,12.45
2018-02-06T13:28:39.793Z,12.73
2018-02-06T13:31:08.569Z,12.37
2018-02-06T13:33:36.585Z,12.63
2018-02-06T13:36:04.601Z,14.38
2018-02-06T13:38:32.605Z,13.90
2018-02-06T13:41:03.381Z,12.85
2018-02-06T13:43:32.377Z,12.35
2018-02-06T13:46:01.381Z,15.50
2018-02-06T13:48:35.181Z,15.65
2018-02-06T13:51:04.165Z,14.40
2018-02-06T13:53:32.180Z,14.38
2018-02-06T13:56:05.536Z,13.55
2018-02-06T13:58:33.549Z,13.32
2018-02-06T14:01:02.334Z,14.68
2018-02-06T14:03:32.109Z,14.45
2018-02-06T14:06:06.197Z,16.42
2018-02-06T14:08:34.216Z,15.57
2018-02-06T14:11:02.357Z,13.10
2018-02-06T14:13:34.781Z,15.57
2018-02-06T14:16:06.605Z,14.77
2018-02-06T14:18:34.609Z,14.20
2018-02-06T14:21:02.637Z,14.00
2018-02-06T14:23:30.653Z,14.30
2018-02-06T14:25:58.673Z,13.77
2018-02-06T14:28:27.793Z,14.38
2018-02-06T14:30:55.801Z,14.27
2018-02-06T14:33:25.757Z,13.40
2018-02-06T14:35:53.773Z,13.82
2018-02-06T14:38:27.601Z,14.85
2018-02-06T14:40:55.609Z,13.70
2018-02-06T14:43:23.617Z,14.77
2018-02-06T14:45:52.553Z,13.48
2018-02-06T14:48:20.569Z,13.48
2018-02-06T14:50:49.345Z,13.68
2018-02-06T14:53:19.113Z,14.50
2018-02-06T14:55:52.121Z,14.80
2018-02-06T14:58:21.025Z,14.10
2018-02-06T15:00:49.921Z,14.15
2018-02-06T15:03:18.705Z,13.55
2018-02-06T15:05:51.045Z,13.77
2018-02-06T15:08:22.704Z,14.63
2018-02-06T15:10:55.480Z,14.07
2018-02-06T15:13:23.476Z,14.48
2018-02-06T15:15:52.297Z,12.80
2018-02-06T15:18:20.309Z,14.82
2018-02-06T15:20:48.312Z,11.80
2018-02-06T15:23:21.008Z,14.73
2018-02-06T15:25:49.030Z,15.05
2018-02-06T15:28:17.049Z,14.73
2018-02-06T15:30:45.061Z,14.87
2018-02-06T15:33:13.101Z,14.60
2018-02-06T15:35:41.120Z,13.35
2018-02-06T15:38:11.022Z,13.98
2018-02-06T15:40:39.033Z,14.35
2018-02-06T15:43:09.863Z,13.65
2018-02-06T15:45:37.825Z,13.75
2018-02-06T15:48:06.635Z,13.90
2018-02-06T15:50:35.397Z,13.07
2018-02-06T15:53:10.904Z,13.10
2018-02-06T15:55:46.528Z,14.57
2018-02-06T15:58:20.361Z,14.93
2018-02-06T16:01:06.189Z,14.63
2018-02-06T16:03:35.001Z,14.25
2018-02-06T16:06:05.680Z,15.98
2018-02-06T16:08:33.692Z,14.90
2018-02-06T16:11:02.605Z,14.80
2018-02-06T16:13:31.642Z,13.95
2018-02-06T16:15:59.685Z,15.95
2018-02-06T16:18:27.737Z,15.60
2018-02-06T16:20:55.745Z,14.65
2018-02-06T16:23:23.756Z,15.18
2018-02-06T16:25:52.696Z,16.02
2018-02-06T16:28:22.076Z,14.43
2018-02-06T16:30:50.045Z,15.43
2018-02-06T16:33:28.264Z,16.45
2018-02-06T16:36:03.889Z,14.65
2018-02-06T16:38:35.989Z,14.90
2018-02-06T16:41:04.001Z,14.57
2018-02-06T16:43:34.693Z,14.27
2018-02-06T16:46:10.813Z,17.10
2018-02-06T16:48:49.029Z,16.20
2018-02-06T16:51:17.037Z,16.42
2018-02-06T16:53:46.017Z,15.77
2018-02-06T16:56:17.792Z,15.43
2018-02-06T16:58:46.781Z,14.43
2018-02-06T17:01:14.793Z,15.73
2018-02-06T17:03:43.717Z,16.80
2018-02-06T17:06:11.729Z,15.60
2018-02-06T17:08:39.753Z,18.15
2018-02-06T17:11:07.764Z,16.40
2018-02-06T17:13:37.745Z,18.20
2018-02-06T17:16:06.744Z,18.95
2018-02-06T17:18:36.768Z,18.90
2018-02-06T17:21:05.673Z,20.30
2018-02-06T17:23:33.697Z,16.90
2018-02-06T17:26:01.733Z,18.37
2018-02-06T17:28:31.696Z,19.87
2018-02-06T17:30:59.712Z,16.50
2018-02-06T17:33:27.724Z,19.65
2018-02-06T17:35:57.185Z,16.05
2018-02-06T17:38:25.968Z,15.60
2018-02-06T17:40:54.760Z,17.23
2018-02-06T17:43:24.067Z,18.58
2018-02-06T17:45:55.520Z,16.87
2018-02-06T17:48:23.556Z,18.48
2018-02-06T17:50:52.529Z,18.90
2018-02-06T17:53:20.540Z,19.27
2018-02-06T17:55:53.284Z,18.90
2018-02-06T17:58:21.295Z,18.65
2018-02-06T18:00:50.968Z,20.90
2018-02-06T18:03:18.988Z,18.92
2018-02-06T18:05:47.912Z,19.20
2018-02-06T18:08:15.924Z,17.08
2018-02-06T18:10:47.858Z,20.12
2018-02-06T18:13:15.872Z,17.80
2018-02-06T18:15:53.920Z,19.75
2018-02-06T18:18:21.904Z,20.25
2018-02-06T18:20:49.933Z,19.27
2018-02-06T18:23:19.620Z,17.95
2018-02-06T18:25:47.672Z,19.23
2018-02-06T18:28:17.458Z,19.92
2018-02-06T18:30:53.076Z,20.85
2018-02-06T18:33:35.456Z,18.77
2018-02-06T18:36:03.464Z,18.83
2018-02-06T18:38:33.384Z,19.08
2018-02-06T18:41:02.380Z,17.23
2018-02-06T18:43:36.916Z,18.17
2018-02-06T18:46:05.858Z,16.42
2018-02-06T18:48:34.804Z,16.83
2018-02-06T18:51:03.804Z,17.90
2018-02-06T18:53:31.845Z,17.12
2018-02-06T18:55:59.840Z,16.55
2018-02-06T18:58:40.932Z,18.67
2018-02-06T19:01:09.752Z,17.27
2018-02-06T19:03:37.784Z,16.08
2018-02-06T19:06:05.800Z,15.30
2018-02-06T19:08:38.853Z,20.05
2018-02-06T19:11:07.788Z,14.57
2018-02-06T19:13:36.788Z,18.40
2018-02-06T19:16:10.200Z,19.27
2018-02-06T19:18:39.100Z,18.20
2018-02-06T19:21:09.108Z,16.33
2018-02-06T19:23:37.132Z,16.42
2018-02-06T19:26:22.696Z,17.17
2018-02-06T19:28:52.664Z,18.60
2018-02-06T19:31:21.663Z,18.35
2018-02-06T19:33:53.204Z,16.10
2018-02-06T19:36:25.118Z,18.75
2018-02-06T19:38:53.220Z,17.67
2018-02-06T19:41:24.280Z,17.58
2018-02-06T19:44:07.251Z,20.20
2018-02-06T19:46:40.391Z,18.27
2018-02-06T19:49:16.879Z,18.20
2018-02-06T19:51:49.121Z,20.52
2018-02-06T19:54:21.008Z,16.85
2018-02-06T19:56:54.792Z,16.37
2018-02-06T19:59:23.100Z,17.95
2018-02-06T20:01:51.304Z,19.08
2018-02-06T20:04:24.929Z,21.25
2018-02-06T20:06:59.308Z,16.17
2018-02-06T20:09:27.342Z,16.75
2018-02-06T20:11:57.336Z,20.45
2018-02-06T20:14:32.983Z,17.12
2018-02-06T20:17:13.735Z,18.23
2018-02-06T20:19:49.587Z,20.58
2018-02-06T20:22:19.284Z,18.23
2018-02-06T20:24:48.219Z,19.50
2018-02-06T20:27:20.456Z,18.37
2018-02-06T20:29:49.492Z,18.60
2018-02-06T20:32:17.540Z,18.98
2018-02-06T20:34:48.943Z,19.08
2018-02-06T20:37:16.964Z,16.60
2018-02-06T20:39:48.415Z,17.90
2018-02-06T20:42:24.847Z,17.45
2018-02-06T20:44:52.892Z,16.00
2018-02-06T20:47:25.888Z,19.75
2018-02-06T20:49:54.891Z,20.88
2018-02-06T20:52:23.831Z,16.15
2018-02-06T20:54:53.833Z,18.27
2018-02-06T20:57:26.008Z,19.67
2018-02-06T20:59:54.036Z,19.55
2018-02-06T21:02:27.319Z,21.12
2018-02-06T21:04:56.255Z,19.42
2018-02-06T21:07:30.179Z,21.12
2018-02-06T21:09:58.223Z,19.95
2018-02-06T21:12:36.560Z,18.90
2018-02-06T21:15:07.579Z,19.45
2018-02-06T21:17:37.607Z,19.45
2018-02-06T21:20:07.627Z,19.92
2018-02-06T21:22:42.331Z,20.25
2018-02-06T21:25:12.281Z,20.25
2018-02-06T21:27:40.307Z,20.00
2018-02-06T21:30:10.236Z,20.65
2018-02-06T21:32:38.275Z,19.50
2018-02-06T21:35:09.727Z,19.60
2018-02-06T21:37:37.851Z,19.25
2018-02-06T21:40:13.259Z,19.60
2018-02-06T21:42:42.287Z,21.30
2018-02-06T21:45:13.831Z,21.42
2018-02-06T21:47:42.739Z,19.55
2018-02-06T21:50:12.439Z,21.55
2018-02-06T21:52:41.431Z,20.65
2018-02-06T21:55:12.763Z,22.08
2018-02-06T21:57:44.319Z,17.75
2018-02-06T22:00:12.335Z,18.10
2018-02-06T22:02:41.271Z,20.27
2018-02-06T22:05:09.307Z,18.08
2018-02-06T22:07:38.335Z,15.45
2018-02-06T22:10:06.381Z,14.43
2018-02-06T22:12:34.403Z,18.87
2018-02-06T22:15:06.743Z,17.50
2018-02-06T22:17:34.775Z,20.10
2018-02-06T22:20:02.799Z,20.58
2018-02-06T22:22:40.686Z,16.42
2018-02-06T22:25:12.760Z,19.25
2018-02-06T22:27:41.753Z,21.27
2018-02-06T22:30:22.775Z,20.12
2018-02-06T22:32:51.711Z,18.52
2018-02-06T22:35:25.422Z,21.10
2018-02-06T22:37:54.250Z,19.98
2018-02-06T22:40:22.271Z,20.45
2018-02-06T22:42:51.259Z,18.05
2018-02-06T22:45:23.090Z,22.30
2018-02-06T22:47:52.515Z,16.70
2018-02-06T22:50:20.487Z,21.87
2018-02-06T22:52:53.307Z,19.67
2018-02-06T22:55:28.282Z,22.55
2018-02-06T22:57:58.222Z,21.65
2018-02-06T23:00:28.151Z,20.88
2018-02-06T23:02:57.131Z,20.80
2018-02-06T23:05:25.147Z,19.15
2018-02-06T23:07:56.007Z,19.50
2018-02-06T23:10:25.939Z,19.37
2018-02-06T23:12:53.955Z,22.08
2018-02-06T23:15:22.738Z,20.80
2018-02-06T23:17:53.163Z,19.33
2018-02-06T23:20:33.158Z,20.48
2018-02-06T23:23:03.170Z,20.98
2018-02-06T23:25:31.207Z,20.25
2018-02-06T23:28:00.979Z,19.85
2018-02-06T23:30:34.435Z,22.23
2018-02-06T23:33:02.467Z,21.95
2018-02-06T23:35:33.618Z,23.60
2018-02-06T23:38:09.511Z,23.73
2018-02-06T23:40:38.559Z,21.87
2018-02-06T23:43:06.560Z,20.37
2018-02-06T23:45:35.491Z,20.08
2018-02-06T23:48:14.907Z,19.05
2018-02-06T23:50:42.947Z,18.85
2018-02-06T23:53:25.142Z,22.13
2018-02-06T23:55:55.834Z,20.17
2018-02-06T23:58:24.814Z,22.55
